Time;durP1;ratioP1;P1;durP2;ratioP2;P2;SDS_P1;SDS_P2;PMS_P1;PMS_P2;Temp;Humidity;BMP_temperature;BMP_pressure;BME280_temperature;BME280_humidity;BME280_pressure;Samples;Min_cycle;Max_cycle;Signal;HPM_P1;HPM_P2
2024/01/24 00:01:10;;;;;;;1999.90;999.90;;;15.40;99.90;;;;;;5073081;28;20383;-73
2024/01/24 00:03:35;;;;;;;1999.90;999.90;;;15.40;99.90;;;;;;5087877;28;20449;-74
2024/01/24 00:06:01;;;;;;;1999.90;999.90;;;15.40;99.90;;;;;;5095130;28;20052;-73
2024/01/24 00:08:27;;;;;;;1999.90;999.90;;;15.30;99.90;;;;;;5095097;28;20027;-73
2024/01/24 00:10:52;;;;;;;1999.90;999.90;;;15.30;99.90;;;;;;5095166;28;20028;-75
2024/01/24 00:13:18;;;;;;;1999.90;999.90;;;15.20;99.90;;;;;;5095182;28;20024;-76
2024/01/24 00:15:44;;;;;;;1999.90;999.90;;;15.20;99.90;;;;;;5094949;28;20032;-76
2024/01/24 00:18:09;;;;;;;1999.90;999.90;;;15.10;99.90;;;;;;5094972;28;20372;-73
2024/01/24 00:20:35;;;;;;;1999.90;999.90;;;15.10;99.90;;;;;;5073690;28;20029;-73
2024/01/24 00:23:01;;;;;;;1999.90;999.90;;;15.10;99.90;;;;;;5074580;28;20055;-73
2024/01/24 00:25:26;;;;;;;1999.90;999.90;;;15.10;99.90;;;;;;5077091;28;20025;-75
2024/01/24 00:27:52;;;;;;;1999.90;999.90;;;15.10;99.90;;;;;;5081530;28;20557;-75
2024/01/24 00:30:18;;;;;;;1999.90;999.90;;;15.10;99.90;;;;;;5076806;28;20032;-75
2024/01/24 00:32:43;;;;;;;1999.90;999.90;;;15.10;99.90;;;;;;5081362;28;20025;-74
2024/01/24 00:35:09;;;;;;;1999.90;999.90;;;15.10;99.90;;;;;;5081778;28;20063;-73
2024/01/24 00:37:34;;;;;;;1999.90;999.90;;;15.10;99.90;;;;;;5094614;28;20060;-75
2024/01/24 00:40:00;;;;;;;1999.90;999.90;;;15.10;99.90;;;;;;5085664;28;20538;-73
2024/01/24 00:42:25;;;;;;;1999.90;999.90;;;15.10;99.90;;;;;;5094531;28;20027;-73
2024/01/24 00:44:51;;;;;;;1999.90;999.90;;;15.00;99.90;;;;;;5094583;28;20371;-73
2024/01/24 00:47:20;;;;;;;1999.90;999.90;;;15.00;99.90;;;;;;5092089;28;20035;-75
2024/01/24 00:49:46;;;;;;;1999.90;999.90;;;15.00;99.90;;;;;;5074197;28;20033;-75
2024/01/24 00:52:12;;;;;;;1999.90;999.90;;;15.00;99.90;;;;;;5074208;28;20502;-76
2024/01/24 00:54:38;;;;;;;1999.90;999.90;;;15.00;99.90;;;;;;5074046;28;20471;-74
2024/01/24 00:57:04;;;;;;;1999.90;999.90;;;15.00;99.90;;;;;;5074222;28;20380;-73
2024/01/24 00:59:29;;;;;;;1999.90;999.90;;;15.00;99.90;;;;;;5073922;28;20020;-73
2024/01/24 01:01:55;;;;;;;1999.90;999.90;;;15.00;99.90;;;;;;5072857;28;20544;-74
2024/01/24 01:04:21;;;;;;;1999.90;999.90;;;14.90;99.90;;;;;;5073720;28;20464;-75
2024/01/24 01:06:47;;;;;;;1999.90;999.90;;;14.90;99.90;;;;;;5074041;28;20112;-75
2024/01/24 01:09:12;;;;;;;1999.90;999.90;;;14.90;99.90;;;;;;5073554;28;20086;-73
2024/01/24 01:11:38;;;;;;;1999.90;999.90;;;14.90;99.90;;;;;;5074061;28;20107;-73
2024/01/24 01:14:04;;;;;;;1999.90;999.90;;;14.80;99.90;;;;;;5073259;28;20464;-74
2024/01/24 01:16:30;;;;;;;1999.90;999.90;;;14.80;99.90;;;;;;5073715;28;20065;-75
2024/01/24 01:18:55;;;;;;;1999.90;999.90;;;14.80;99.90;;;;;;5073766;28;20043;-76
2024/01/24 01:21:21;;;;;;;1999.90;999.90;;;14.80;99.90;;;;;;5073658;28;20137;-75
2024/01/24 01:23:46;;;;;;;1999.90;999.90;;;14.80;99.90;;;;;;5073512;28;20029;-75
2024/01/24 01:26:13;;;;;;;1999.90;999.90;;;14.70;99.90;;;;;;5087324;28;20035;-73
2024/01/24 01:28:38;;;;;;;1999.90;999.90;;;14.70;99.90;;;;;;5080208;28;20107;-76
2024/01/24 01:31:04;;;;;;;1999.90;999.90;;;14.60;99.90;;;;;;5094114;28;20067;-75
2024/01/24 01:33:30;;;;;;;1999.90;999.90;;;14.60;99.90;;;;;;5083717;28;20103;-76
2024/01/24 01:35:55;;;;;;;1999.90;999.90;;;14.60;99.90;;;;;;5055372;28;20032;-75
2024/01/24 01:38:21;;;;;;;1999.90;999.90;;;14.60;99.90;;;;;;5092156;28;20459;-76
2024/01/24 01:40:46;;;;;;;1999.90;999.90;;;14.60;99.90;;;;;;5093430;28;20493;-73
2024/01/24 01:43:16;;;;;;;1999.90;999.90;;;14.50;99.90;;;;;;5078678;28;20028;-75
2024/01/24 01:45:42;;;;;;;1999.90;999.90;;;14.60;99.90;;;;;;5072418;28;20093;-75
2024/01/24 01:48:09;;;;;;;1999.90;999.90;;;14.50;99.90;;;;;;5072289;28;20491;-74
2024/01/24 01:50:36;;;;;;;1999.90;999.90;;;14.60;99.90;;;;;;5055111;28;20037;-74
2024/01/24 01:53:03;;;;;;;1999.90;999.90;;;14.50;99.90;;;;;;5081326;28;20024;-75
2024/01/24 01:55:31;;;;;;;1999.90;999.90;;;14.50;99.90;;;;;;5093118;28;20482;-75
2024/01/24 01:57:58;;;;;;;1999.90;999.90;;;14.40;99.90;;;;;;5074794;28;20057;-76
2024/01/24 02:00:25;;;;;;;1999.90;999.90;;;14.40;99.90;;;;;;5084475;28;20099;-75
2024/01/24 02:02:51;;;;;;;1999.90;999.90;;;14.40;99.90;;;;;;5072835;28;20027;-76
2024/01/24 02:05:16;;;;;;;1999.90;999.90;;;14.40;99.90;;;;;;5072954;28;20124;-76
2024/01/24 02:07:43;;;;;;;1999.90;999.90;;;14.40;99.90;;;;;;5054859;28;20074;-76
2024/01/24 02:10:11;;;;;;;1999.90;999.90;;;14.40;99.90;;;;;;5072757;28;20039;-75
2024/01/24 02:12:37;;;;;;;1999.90;999.90;;;14.40;99.90;;;;;;5072726;28;20036;-75
2024/01/24 02:15:03;;;;;;;1999.90;999.90;;;14.40;99.90;;;;;;5072848;28;20024;-74
2024/01/24 02:17:29;;;;;;;1999.90;999.90;;;14.50;99.90;;;;;;5072656;28;20024;-74
2024/01/24 02:19:54;;;;;;;1999.90;999.90;;;14.50;99.90;;;;;;5072652;28;20025;-75
2024/01/24 02:22:20;;;;;;;1999.90;999.90;;;14.50;99.90;;;;;;5072484;28;20032;-76
2024/01/24 02:24:45;;;;;;;1999.90;999.90;;;14.50;99.90;;;;;;5075646;28;20447;-76
2024/01/24 02:27:11;;;;;;;1999.90;999.90;;;14.50;99.90;;;;;;5060084;28;20423;-76
2024/01/24 02:29:37;;;;;;;1999.90;999.90;;;14.50;99.90;;;;;;5082645;28;20031;-74
2024/01/24 02:32:02;;;;;;;1999.90;999.90;;;14.50;99.90;;;;;;5088247;28;20620;-75
2024/01/24 02:34:28;;;;;;;1999.90;999.90;;;14.40;99.90;;;;;;5050970;28;20037;-75
2024/01/24 02:36:54;;;;;;;1999.90;999.90;;;14.50;99.90;;;;;;5052128;28;20029;-75
2024/01/24 02:39:19;;;;;;;1999.90;999.90;;;14.40;99.90;;;;;;5088123;28;20077;-76
2024/01/24 02:41:45;;;;;;;1999.90;999.90;;;14.50;99.90;;;;;;5092752;28;20410;-75
2024/01/24 02:44:11;;;;;;;1999.90;999.90;;;14.50;99.90;;;;;;5074496;28;20020;-75
2024/01/24 02:46:36;;;;;;;1999.90;999.90;;;14.50;99.90;;;;;;5092584;28;20052;-75
2024/01/24 02:49:03;;;;;;;1999.90;999.90;;;14.50;99.90;;;;;;5074492;28;20424;-76
2024/01/24 02:51:28;;;;;;;1999.90;999.90;;;14.50;99.90;;;;;;5075843;28;20025;-76
2024/01/24 02:53:54;;;;;;;1999.90;999.90;;;14.50;99.90;;;;;;5072371;28;20020;-74
2024/01/24 02:56:20;;;;;;;1999.90;999.90;;;14.50;99.90;;;;;;5072156;28;20082;-75
2024/01/24 02:58:46;;;;;;;1999.90;999.90;;;14.50;99.90;;;;;;5074506;28;20025;-73
2024/01/24 03:01:12;;;;;;;1999.90;999.90;;;14.50;99.90;;;;;;5076108;28;20028;-76
2024/01/24 03:03:40;;;;;;;1999.90;999.90;;;14.50;99.90;;;;;;5075970;28;20017;-75
2024/01/24 03:06:06;;;;;;;1999.90;999.90;;;14.40;99.90;;;;;;5076007;28;20048;-74
2024/01/24 03:08:54;;;;;;;1999.90;999.90;;;14.40;99.90;;;;;;5076102;28;20410;-75
2024/01/24 03:11:20;;;;;;;1999.90;999.90;;;14.40;99.90;;;;;;5075197;28;20394;-75
2024/01/24 03:13:46;;;;;;;1999.90;999.90;;;14.30;99.90;;;;;;5057939;28;20028;-75
2024/01/24 03:16:11;;;;;;;1999.90;999.90;;;14.20;99.90;;;;;;5075969;28;20031;-75
2024/01/24 03:18:38;;;;;;;1999.90;999.90;;;14.20;99.90;;;;;;5087874;28;20020;-75
2024/01/24 03:21:09;;;;;;;1999.90;999.90;;;14.20;99.90;;;;;;5096320;28;20150;-74
2024/01/24 03:23:37;;;;;;;1999.90;999.90;;;14.20;99.90;;;;;;5095776;28;20039;-73
2024/01/24 03:26:04;;;;;;;1999.90;999.90;;;14.20;99.90;;;;;;5071488;28;20035;-75
2024/01/24 03:28:29;;;;;;;1999.90;999.90;;;14.10;99.90;;;;;;5077971;28;20020;-75
2024/01/24 03:30:55;;;;;;;1999.90;999.90;;;14.20;99.90;;;;;;5076028;28;20110;-75
2024/01/24 03:33:21;;;;;;;1999.90;999.90;;;14.20;99.90;;;;;;5075443;28;20029;-75
2024/01/24 03:35:47;;;;;;;1999.90;999.90;;;14.20;99.90;;;;;;5075482;28;20025;-75
2024/01/24 03:38:13;;;;;;;1999.90;999.90;;;14.20;99.90;;;;;;5085144;28;20566;-75
2024/01/24 03:40:38;;;;;;;1999.90;999.90;;;14.10;99.90;;;;;;5095733;28;20474;-73
2024/01/24 03:43:05;;;;;;;1999.90;999.90;;;14.20;99.90;;;;;;5095928;28;20059;-73
2024/01/24 03:45:31;;;;;;;1999.90;999.90;;;14.30;99.90;;;;;;5095940;28;20104;-73
2024/01/24 03:47:56;;;;;;;1999.90;999.90;;;14.40;99.90;;;;;;5089244;28;20454;-75
2024/01/24 03:50:22;;;;;;;1999.90;999.90;;;14.40;99.90;;;;;;5075143;28;20036;-75
2024/01/24 03:52:48;;;;;;;1999.90;999.90;;;14.50;99.90;;;;;;5075386;28;20028;-75
2024/01/24 03:55:13;;;;;;;1999.90;999.90;;;14.50;99.90;;;;;;5075416;28;20029;-75
2024/01/24 03:57:40;;;;;;;1999.90;999.90;;;14.50;99.90;;;;;;5075093;28;20020;-75
2024/01/24 04:00:06;;;;;;;1999.90;999.90;;;14.60;99.90;;;;;;5073836;28;20047;-75
2024/01/24 04:02:32;;;;;;;1999.90;999.90;;;14.70;99.90;;;;;;5074404;28;20017;-75
2024/01/24 04:04:57;;;;;;;1999.90;999.90;;;14.70;99.90;;;;;;5077592;28;20051;-75
2024/01/24 04:07:23;;;;;;;1999.90;999.90;;;14.70;99.90;;;;;;5095280;28;20024;-75
2024/01/24 04:09:50;;;;;;;1999.90;999.90;;;14.70;99.90;;;;;;5093952;28;20109;-75
2024/01/24 04:12:15;;;;;;;1999.90;999.90;;;14.70;99.90;;;;;;5095034;28;20028;-75
2024/01/24 04:14:41;;;;;;;1999.90;999.90;;;14.80;99.90;;;;;;5094818;28;20093;-73
2024/01/24 04:17:07;;;;;;;1999.90;999.90;;;14.80;99.90;;;;;;5095075;28;20063;-73
2024/01/24 04:19:32;;;;;;;1999.90;999.90;;;14.80;99.90;;;;;;5095103;28;20020;-75
2024/01/24 04:21:58;;;;;;;1999.90;999.90;;;14.60;99.90;;;;;;5094830;28;20466;-75
2024/01/24 04:24:23;;;;;;;1999.90;999.90;;;14.60;99.90;;;;;;5094654;28;20032;-74
2024/01/24 04:26:49;;;;;;;1999.90;999.90;;;14.50;99.90;;;;;;5088839;28;20037;-75
2024/01/24 04:29:16;;;;;;;1999.90;999.90;;;14.50;99.90;;;;;;5076591;28;20033;-75
2024/01/24 04:31:42;;;;;;;1999.90;999.90;;;14.60;99.90;;;;;;5074525;28;20024;-75
2024/01/24 04:34:08;;;;;;;1999.90;999.90;;;14.60;99.90;;;;;;5053136;28;20559;-75
2024/01/24 04:36:33;;;;;;;1999.90;999.90;;;14.60;99.90;;;;;;5054285;28;20078;-75
2024/01/24 04:38:59;;;;;;;1999.90;999.90;;;14.70;99.90;;;;;;5085428;28;20031;-75
2024/01/24 04:41:25;;;;;;;1999.90;999.90;;;14.70;99.90;;;;;;5086398;28;20491;-74
2024/01/24 04:43:51;;;;;;;1999.90;999.90;;;14.70;99.90;;;;;;5094035;28;20157;-75
2024/01/24 04:46:17;;;;;;;1999.90;999.90;;;14.70;99.90;;;;;;5094398;28;20076;-75
2024/01/24 04:48:44;;;;;;;1999.90;999.90;;;14.70;99.90;;;;;;5094306;28;20106;-75
2024/01/24 04:51:10;;;;;;;1999.90;999.90;;;14.70;99.90;;;;;;5094676;28;20513;-75
2024/01/24 04:53:36;;;;;;;1999.90;999.90;;;14.60;99.90;;;;;;5094363;28;20024;-75
2024/01/24 04:56:03;;;;;;;1999.90;999.90;;;14.60;99.90;;;;;;5094432;28;20030;-75
2024/01/24 04:58:29;;;;;;;1999.90;999.90;;;14.60;99.90;;;;;;5075911;28;20479;-75
2024/01/24 05:00:55;;;;;;;1999.90;999.90;;;14.60;99.90;;;;;;5081703;28;20032;-75
2024/01/24 05:03:21;;;;;;;1999.90;999.90;;;14.60;99.90;;;;;;5073873;28;20438;-75
2024/01/24 05:05:46;;;;;;;1999.90;999.90;;;14.60;99.90;;;;;;5078434;28;20044;-75
2024/01/24 05:08:12;;;;;;;1999.90;999.90;;;14.60;99.90;;;;;;5087413;28;20447;-76
2024/01/24 05:10:38;;;;;;;1999.90;999.90;;;14.60;99.90;;;;;;5094163;28;20019;-74
2024/01/24 05:13:03;;;;;;;1999.90;999.90;;;14.60;99.90;;;;;;5093965;28;20060;-76
2024/01/24 05:15:29;;;;;;;1999.90;999.90;;;14.70;99.90;;;;;;5094030;28;20028;-75
2024/01/24 05:17:55;;;;;;;1999.90;999.90;;;14.70;99.90;;;;;;5085825;28;20533;-75
2024/01/24 05:20:21;;;;;;;1999.90;999.90;;;14.60;99.90;;;;;;5073217;28;20021;-74
2024/01/24 05:22:47;;;;;;;1999.90;999.90;;;14.70;99.90;;;;;;5073878;28;20024;-75
2024/01/24 05:25:12;;;;;;;1999.90;999.90;;;14.80;99.90;;;;;;5080351;28;20058;-76
2024/01/24 05:27:38;;;;;;;1999.90;999.90;;;14.80;99.90;;;;;;5081852;28;20074;-76
2024/01/24 05:30:05;;;;;;;1999.90;999.90;;;14.80;99.90;;;;;;5072593;28;20115;-76
2024/01/24 05:32:31;;;;;;;1999.90;999.90;;;14.90;99.90;;;;;;5073144;28;20078;-75
2024/01/24 05:34:57;;;;;;;1999.90;999.90;;;14.80;99.90;;;;;;5073235;28;20025;-75
2024/01/24 05:37:23;;;;;;;1999.90;999.90;;;14.80;99.90;;;;;;5075239;28;20479;-76
2024/01/24 05:39:48;;;;;;;1999.90;999.90;;;14.80;99.90;;;;;;5093412;28;20045;-76
2024/01/24 05:42:14;;;;;;;1999.90;999.90;;;14.80;99.90;;;;;;5093430;28;20040;-76
2024/01/24 05:44:40;;;;;;;1999.90;999.90;;;14.90;99.90;;;;;;5093554;28;20016;-74
2024/01/24 05:47:05;;;;;;;1999.90;999.90;;;14.90;99.90;;;;;;5093370;28;20035;-75
2024/01/24 05:49:36;;;;;;;1999.90;999.90;;;15.00;99.90;;;;;;5093554;28;20021;-76
2024/01/24 05:52:06;;;;;;;1999.90;999.90;;;15.10;99.90;;;;;;5093326;28;20024;-76
2024/01/24 05:54:32;;;;;;;1999.90;999.90;;;15.10;99.90;;;;;;5074654;28;20482;-75
2024/01/24 05:56:58;;;;;;;1999.90;999.90;;;15.20;99.90;;;;;;5073627;28;20078;-76
2024/01/24 05:59:23;;;;;;;1999.90;999.90;;;15.20;99.90;;;;;;5072731;28;20021;-75
2024/01/24 06:01:50;;;;;;;1999.90;999.90;;;15.20;99.90;;;;;;5072344;28;20043;-75
2024/01/24 06:04:16;;;;;;;1999.90;999.90;;;15.20;99.90;;;;;;5072595;28;20540;-76
2024/01/24 06:06:41;;;;;;;1999.90;999.90;;;15.00;99.90;;;;;;5089177;28;20040;-74
2024/01/24 06:09:07;;;;;;;1999.90;999.90;;;14.90;99.90;;;;;;5092650;28;20020;-74
2024/01/24 06:11:33;;;;;;;1999.90;999.90;;;14.80;99.90;;;;;;5092534;28;20032;-75
2024/01/24 06:13:59;;;;;;;1999.90;999.90;;;14.70;99.90;;;;;;5090489;28;20016;-76
2024/01/24 06:16:24;;;;;;;1999.90;999.90;;;14.70;99.90;;;;;;5072651;28;20043;-75
2024/01/24 06:18:50;;;;;;;1999.90;999.90;;;14.60;99.90;;;;;;5084053;28;20094;-76
2024/01/24 06:21:15;;;;;;;1999.90;999.90;;;14.70;99.90;;;;;;5080121;28;20107;-76
2024/01/24 06:23:41;;;;;;;1999.90;999.90;;;14.70;99.90;;;;;;5086042;28;20020;-74
2024/01/24 06:26:07;;;;;;;1999.90;999.90;;;14.70;99.90;;;;;;5081546;28;20436;-74
2024/01/24 06:28:33;;;;;;;1999.90;999.90;;;14.70;99.90;;;;;;5055374;28;20409;-76
2024/01/24 06:30:59;;;;;;;1999.90;999.90;;;14.80;99.90;;;;;;5080746;28;20099;-74
2024/01/24 06:33:25;;;;;;;1999.90;999.90;;;14.90;99.90;;;;;;5078259;28;20047;-75
2024/01/24 06:35:50;;;;;;;1999.90;999.90;;;14.90;99.90;;;;;;5071063;28;20055;-74
2024/01/24 06:38:16;;;;;;;1999.90;999.90;;;15.00;99.90;;;;;;5071372;28;20075;-76
2024/01/24 06:40:42;;;;;;;1999.90;999.90;;;15.00;99.90;;;;;;5069088;28;20008;-76
2024/01/24 06:43:08;;;;;;;1999.90;999.90;;;15.00;99.90;;;;;;5070857;28;20040;-74
2024/01/24 06:45:33;;;;;;;1999.90;999.90;;;15.00;99.90;;;;;;5077492;28;20024;-76
2024/01/24 06:47:59;;;;;;;1999.90;999.90;;;15.00;99.90;;;;;;5073481;28;20086;-74
2024/01/24 06:50:24;;;;;;;1999.90;999.90;;;15.00;99.90;;;;;;5075397;28;20028;-75
2024/01/24 06:52:50;;;;;;;1999.90;999.90;;;14.90;99.90;;;;;;5077926;28;20585;-74
2024/01/24 06:55:17;;;;;;;1999.90;999.90;;;14.90;99.90;;;;;;5076160;28;20024;-74
2024/01/24 06:57:42;;;;;;;1999.90;999.90;;;14.90;99.90;;;;;;5086377;28;20465;-76
2024/01/24 07:00:09;;;;;;;1999.90;999.90;;;14.90;99.90;;;;;;5084110;28;20096;-74
2024/01/24 07:02:36;;;;;;;1999.90;999.90;;;14.90;99.90;;;;;;5070527;28;20115;-74
2024/01/24 07:05:03;;;;;;;1999.90;999.90;;;14.90;99.90;;;;;;5077486;28;20486;-73
2024/01/24 07:07:29;;;;;;;1999.90;999.90;;;14.90;99.90;;;;;;5061536;28;20090;-75
2024/01/24 07:09:55;;;;;;;1999.90;999.90;;;14.90;99.90;;;;;;5056207;28;20039;-75
2024/01/24 07:12:20;;;;;;;1999.90;999.90;;;14.90;99.90;;;;;;5078736;28;20028;-74
2024/01/24 07:14:48;;;;;;;1999.90;999.90;;;14.90;99.90;;;;;;5084136;28;20052;-75
2024/01/24 07:17:14;;;;;;;1999.90;999.90;;;14.90;99.90;;;;;;5075823;28;20453;-74
2024/01/24 07:19:39;;;;;;;1999.90;999.90;;;14.90;99.90;;;;;;5066230;28;20042;-73
2024/01/24 07:22:05;;;;;;;1999.90;999.90;;;14.90;99.90;;;;;;5074292;28;20040;-76
2024/01/24 07:24:31;;;;;;;1999.90;999.90;;;14.90;99.90;;;;;;5083527;28;20387;-74
2024/01/24 07:26:57;;;;;;;1999.90;999.90;;;14.90;99.90;;;;;;5070167;28;20033;-77
2024/01/24 07:29:23;;;;;;;1999.90;999.90;;;14.90;99.90;;;;;;5069639;28;20025;-75
2024/01/24 07:31:49;;;;;;;1999.90;999.90;;;14.90;99.90;;;;;;5071566;28;20025;-74
2024/01/24 07:34:15;;;;;;;1999.90;999.90;;;14.90;99.90;;;;;;5074281;28;20984;-76
2024/01/24 07:36:41;;;;;;;1999.90;999.90;;;14.90;99.90;;;;;;5073918;28;20024;-73
2024/01/24 07:39:07;;;;;;;1999.90;999.90;;;14.80;99.90;;;;;;5082351;28;20066;-74
2024/01/24 07:41:33;;;;;;;1999.90;999.90;;;14.80;99.90;;;;;;5069491;28;20052;-72
2024/01/24 07:43:59;;;;;;;1999.90;999.90;;;14.80;99.90;;;;;;5070088;28;20048;-71
2024/01/24 07:46:29;;;;;;;1999.90;999.90;;;14.70;99.90;;;;;;5072063;28;20040;-75
2024/01/24 07:48:55;;;;;;;1999.90;999.90;;;14.70;99.90;;;;;;5066325;28;20028;-74
2024/01/24 07:51:20;;;;;;;1999.90;999.90;;;14.70;99.90;;;;;;5078599;28;20090;-74
2024/01/24 07:53:47;;;;;;;1999.90;999.90;;;14.80;99.90;;;;;;5087268;28;20063;-76
2024/01/24 07:56:13;;;;;;;1999.90;999.90;;;14.80;99.90;;;;;;5076944;28;20048;-73
2024/01/24 07:58:40;;;;;;;1999.90;999.90;;;14.80;99.90;;;;;;5079060;28;20035;-76
2024/01/24 08:01:08;;;;;;;1999.90;999.90;;;14.80;99.90;;;;;;5074759;28;20024;-75
2024/01/24 08:03:34;;;;;;;1999.90;999.90;;;14.80;99.90;;;;;;5058505;28;20445;-74
2024/01/24 08:05:59;;;;;;;1999.90;999.90;;;14.90;99.90;;;;;;5071621;28;20045;-73
2024/01/24 08:08:26;;;;;;;1999.90;999.90;;;14.90;99.90;;;;;;5073278;28;20060;-74
2024/01/24 08:10:52;;;;;;;1999.90;999.90;;;14.90;99.90;;;;;;5073541;28;20142;-74
2024/01/24 08:13:17;;;;;;;1999.90;999.90;;;14.90;99.90;;;;;;5070749;28;20474;-76
2024/01/24 08:15:43;;;;;;;1999.90;999.90;;;14.90;99.90;;;;;;5078817;28;20119;-74
2024/01/24 08:18:09;;;;;;;1999.90;999.90;;;14.90;99.90;;;;;;5092019;28;20077;-73
2024/01/24 08:20:34;;;;;;;1999.90;999.90;;;14.90;99.90;;;;;;5079280;28;20143;-73
2024/01/24 08:23:00;;;;;;;1999.90;999.90;;;14.90;99.90;;;;;;5072429;28;20036;-73
2024/01/24 08:25:26;;;;;;;1999.90;999.90;;;14.90;99.90;;;;;;5082896;28;20037;-76
2024/01/24 08:27:53;;;;;;;1999.90;999.90;;;15.00;99.90;;;;;;5084373;28;20087;-77
2024/01/24 08:30:19;;;;;;;1999.90;999.90;;;15.00;99.90;;;;;;5066928;28;20017;-73
2024/01/24 08:32:45;;;;;;;1999.90;999.90;;;15.00;99.90;;;;;;5075042;28;20075;-73
2024/01/24 08:35:10;;;;;;;1999.90;999.90;;;15.00;99.90;;;;;;5086060;28;20468;-73
2024/01/24 08:37:36;;;;;;;1999.90;999.90;;;15.10;99.90;;;;;;5088483;28;20028;-76
2024/01/24 08:40:02;;;;;;;1999.90;999.90;;;15.10;99.90;;;;;;5083469;28;20040;-76
2024/01/24 08:42:29;;;;;;;1999.90;999.90;;;15.10;99.90;;;;;;5083527;28;20024;-73
2024/01/24 08:44:54;;;;;;;1999.90;999.90;;;15.10;99.90;;;;;;5078443;28;20036;-73
2024/01/24 08:47:20;;;;;;;1999.90;999.90;;;15.10;99.90;;;;;;5080292;28;20281;-76
2024/01/24 08:49:46;;;;;;;1999.90;999.90;;;15.20;99.90;;;;;;5072935;28;20063;-74
2024/01/24 08:52:11;;;;;;;1999.90;999.90;;;15.20;99.90;;;;;;5072239;28;20047;-76
2024/01/24 08:54:37;;;;;;;1999.90;999.90;;;15.30;99.90;;;;;;5083378;28;20032;-76
2024/01/24 08:57:03;;;;;;;1999.90;999.90;;;15.40;99.90;;;;;;5067585;28;20403;-74
2024/01/24 08:59:28;;;;;;;1999.90;999.90;;;15.30;99.90;;;;;;5080796;28;20020;-74
2024/01/24 09:01:55;;;;;;;1999.90;999.90;;;15.30;99.90;;;;;;5059838;28;20032;-74
2024/01/24 09:04:21;;;;;;;1999.90;999.90;;;15.30;99.90;;;;;;5073215;28;20035;-76
2024/01/24 09:06:47;;;;;;;1999.90;999.90;;;15.30;99.90;;;;;;5073900;28;20028;-73
2024/01/24 09:09:15;;;;;;;1999.90;999.90;;;15.30;99.90;;;;;;5074086;28;20412;-73
2024/01/24 09:11:41;;;;;;;1999.90;999.90;;;15.30;99.90;;;;;;5075900;28;20016;-73
2024/01/24 09:14:07;;;;;;;1999.90;999.90;;;15.40;99.90;;;;;;5083488;28;20089;-76
2024/01/24 09:16:32;;;;;;;1999.90;999.90;;;15.40;99.90;;;;;;5064310;28;20024;-73
2024/01/24 09:18:58;;;;;;;1999.90;999.90;;;15.40;99.90;;;;;;5077080;28;20094;-76
2024/01/24 09:21:24;;;;;;;1999.90;999.90;;;15.40;99.90;;;;;;5076515;28;20017;-73
2024/01/24 09:23:50;;;;;;;1999.90;999.90;;;15.40;99.90;;;;;;5067121;28;20028;-76
2024/01/24 09:26:16;;;;;;;1999.90;999.90;;;15.40;99.90;;;;;;5079079;28;20037;-76
2024/01/24 09:28:42;;;;;;;1999.90;999.90;;;15.40;99.90;;;;;;5069734;28;20032;-73
2024/01/24 09:31:08;;;;;;;1999.90;999.90;;;15.40;99.90;;;;;;5068458;28;20101;-73
2024/01/24 09:33:33;;;;;;;1999.90;999.90;;;15.60;99.90;;;;;;5050800;28;20036;-75
2024/01/24 09:35:59;;;;;;;1999.90;999.90;;;15.50;99.90;;;;;;5070645;28;20023;-74
2024/01/24 09:38:25;;;;;;;1999.90;999.90;;;15.50;99.90;;;;;;5065441;28;20119;-74
2024/01/24 09:40:52;;;;;;;1999.90;999.90;;;15.50;99.90;;;;;;5070072;28;20458;-74
2024/01/24 09:43:21;;;;;;;1999.90;999.90;;;15.50;99.90;;;;;;5064796;28;20441;-74
2024/01/24 09:45:49;;;;;;;1999.90;999.90;;;15.50;99.90;;;;;;5072222;28;21958;-75
2024/01/24 09:48:16;;;;;;;1999.90;999.90;;;15.40;99.90;;;;;;5071786;28;20063;-74
2024/01/24 09:50:43;;;;;;;1999.90;999.90;;;15.50;99.90;;;;;;5069239;28;20027;-74
2024/01/24 09:53:15;;;;;;;1999.90;999.90;;;15.60;99.90;;;;;;5078425;28;20036;-74
2024/01/24 09:55:42;;;;;;;1999.90;999.90;;;15.40;99.90;;;;;;5084929;28;20031;-73
2024/01/24 09:58:08;;;;;;;1999.90;999.90;;;15.40;99.90;;;;;;5074519;28;20038;-74
2024/01/24 10:00:34;;;;;;;1999.90;999.90;;;15.30;99.90;;;;;;5075653;28;20099;-74
2024/01/24 10:03:00;;;;;;;1999.90;999.90;;;15.30;99.90;;;;;;5079593;28;20024;-74
2024/01/24 10:05:26;;;;;;;1999.90;999.90;;;15.40;99.90;;;;;;5085751;28;20040;-74
2024/01/24 10:07:53;;;;;;;1999.90;999.90;;;15.30;99.90;;;;;;5052889;28;20024;-74
2024/01/24 10:10:19;;;;;;;1999.90;999.90;;;15.40;99.90;;;;;;5055575;28;20029;-74
2024/01/24 10:12:45;;;;;;;1999.90;999.90;;;15.40;99.90;;;;;;5073864;28;20040;-74
2024/01/24 10:15:11;;;;;;;1999.90;999.90;;;15.60;99.90;;;;;;5077892;28;20108;-76
2024/01/24 10:17:44;;;;;;;1999.90;999.90;;;15.60;99.90;;;;;;5059647;28;20549;-74
2024/01/24 10:20:11;;;;;;;1999.90;999.90;;;15.50;99.90;;;;;;5071137;28;20491;-76
2024/01/24 10:22:39;;;;;;;1999.90;999.90;;;15.60;99.90;;;;;;5069451;28;20033;-74
2024/01/24 10:25:05;;;;;;;1999.90;999.90;;;15.70;99.90;;;;;;5068475;28;20052;-74
2024/01/24 10:27:33;;;;;;;1999.90;999.90;;;15.70;99.90;;;;;;5081855;28;20115;-75
2024/01/24 10:29:59;;;;;;;1999.90;999.90;;;15.70;99.90;;;;;;5071051;28;20020;-75
2024/01/24 10:32:24;;;;;;;1999.90;999.90;;;15.70;99.90;;;;;;5073272;28;20119;-74
2024/01/24 10:34:50;;;;;;;1999.90;999.90;;;15.70;99.90;;;;;;5071072;28;20561;-76
2024/01/24 10:37:18;;;;;;;1999.90;999.90;;;15.80;99.90;;;;;;5071268;28;20028;-74
2024/01/24 10:39:44;;;;;;;1999.90;999.90;;;15.90;99.90;;;;;;5070782;28;20025;-74
2024/01/24 10:42:12;;;;;;;1999.90;999.90;;;16.10;99.90;;;;;;5069746;28;20108;-74
2024/01/24 10:44:42;;;;;;;1999.90;999.90;;;16.30;99.90;;;;;;5071048;28;20038;-74
2024/01/24 10:47:09;;;;;;;1999.90;999.90;;;16.30;99.90;;;;;;5076097;28;20039;-74
2024/01/24 10:49:36;;;;;;;1999.90;999.90;;;16.20;99.90;;;;;;5077873;28;20032;-76
2024/01/24 10:52:02;;;;;;;1999.90;999.90;;;15.90;99.90;;;;;;5082555;28;20028;-76
2024/01/24 10:54:30;;;;;;;1999.90;999.90;;;15.80;99.90;;;;;;5077630;28;20025;-76
2024/01/24 10:56:59;;;;;;;1999.90;999.90;;;15.70;99.90;;;;;;5084946;28;20055;-76
2024/01/24 10:59:27;;;;;;;1999.90;999.90;;;15.70;99.90;;;;;;5071303;28;20028;-74
2024/01/24 11:01:52;;;;;;;1999.90;999.90;;;15.70;99.90;;;;;;5070997;28;20024;-74
2024/01/24 11:04:21;;;;;;;1999.90;999.90;;;15.90;99.90;;;;;;5079770;28;20406;-76
2024/01/24 11:06:58;;;;;;;1999.90;999.90;;;16.00;99.90;;;;;;5073347;28;20073;-74
2024/01/24 11:09:43;;;;;;;1999.90;999.90;;;16.10;99.90;;;;;;5070805;28;20017;-74
2024/01/24 11:12:09;;;;;;;1999.90;999.90;;;16.00;99.90;;;;;;5063232;28;21070;-74
2024/01/24 11:14:36;;;;;;;1999.90;999.90;;;15.90;99.90;;;;;;5069275;28;20025;-76
2024/01/24 11:17:05;;;;;;;1999.90;999.90;;;15.90;99.90;;;;;;5068307;28;20017;-76
2024/01/24 11:19:31;;;;;;;1999.90;999.90;;;16.00;99.90;;;;;;5078069;28;20043;-74
2024/01/24 11:22:04;;;;;;;1999.90;999.90;;;16.00;99.90;;;;;;5058191;28;20486;-76
2024/01/24 11:24:44;;;;;;;1999.90;999.90;;;15.90;99.90;;;;;;5073045;28;20728;-74
2024/01/24 11:27:34;;;;;;;1999.90;999.90;;;15.80;99.90;;;;;;5072274;28;20111;-76
2024/01/24 11:30:06;;;;;;;1999.90;999.90;;;15.50;99.90;;;;;;5073652;28;20035;-75
2024/01/24 11:32:55;;;;;;;1999.90;999.90;;;15.60;99.90;;;;;;5073408;28;20074;-74
2024/01/24 11:35:31;;;;;;;1999.90;999.90;;;15.90;99.90;;;;;;5068730;28;20059;-75
2024/01/24 11:38:22;;;;;;;1999.90;999.90;;;16.00;99.90;;;;;;5074493;28;20047;-74
2024/01/24 11:40:51;;;;;;;1999.90;999.90;;;16.00;99.90;;;;;;5074913;28;20028;-74
2024/01/24 11:43:27;;;;;;;1999.90;999.90;;;15.80;99.90;;;;;;5073155;28;20040;-74
2024/01/24 11:45:58;;;;;;;1999.90;999.90;;;15.70;99.90;;;;;;5070598;28;20082;-74
2024/01/24 11:48:26;;;;;;;1999.90;999.90;;;15.80;99.90;;;;;;5067290;28;20028;-74
2024/01/24 11:50:58;;;;;;;1999.90;999.90;;;15.70;99.90;;;;;;5081113;28;20040;-74
2024/01/24 11:53:25;;;;;;;1999.90;999.90;;;15.90;99.90;;;;;;5073078;28;20039;-76
2024/01/24 11:56:10;;;;;;;1999.90;999.90;;;15.90;99.90;;;;;;5053487;28;20029;-76